Time;durP1;ratioP1;P1;durP2;ratioP2;P2;SDS_P1;SDS_P2;PMS_P1;PMS_P2;Temp;Humidity;BMP_temperature;BMP_pressure;BME280_temperature;BME280_humidity;BME280_pressure;Samples;Min_cycle;Max_cycle;Signal;HPM_P1;HPM_P2
2021/11/06 00:00:15;;;;;;;;;;;6.20;99.90;;;;;;5010874;28;19909;-85
2021/11/06 00:02:41;;;;;;;;;;;6.10;99.90;;;;;;5009461;28;19961;-84
2021/11/06 00:05:06;;;;;;;;;;;6.10;99.90;;;;;;5011124;28;19917;-84
2021/11/06 00:07:32;;;;;;;;;;;6.10;99.90;;;;;;5011255;28;19910;-84
2021/11/06 00:09:58;;;;;;;;;;;6.10;99.90;;;;;;5011258;28;19914;-84
2021/11/06 00:12:23;;;;;;;;;;;6.10;99.90;;;;;;5009950;28;19910;-84
2021/11/06 00:14:49;;;;;;;;;;;6.10;99.90;;;;;;5011549;28;20049;-84
2021/11/06 00:17:14;;;;;;;;;;;6.00;99.90;;;;;;5011218;28;19957;-84
2021/11/06 00:19:40;;;;;;;;;;;6.00;99.90;;;;;;5010867;28;19909;-84
2021/11/06 00:22:07;;;;;;;;;;;6.00;99.90;;;;;;5011019;28;19917;-84
2021/11/06 00:24:32;;;;;;;;;;;6.00;99.90;;;;;;5011338;28;20175;-84
2021/11/06 00:26:59;;;;;;;;;;;5.90;99.90;;;;;;5010692;28;20164;-83
2021/11/06 00:29:25;;;;;;;;;;;5.90;99.90;;;;;;5009720;28;19909;-84
2021/11/06 00:31:51;;;;;;;;;;;5.90;99.90;;;;;;5010661;28;19917;-85
2021/11/06 00:34:16;;;;;;;;;;;5.90;99.90;;;;;;5009664;28;20033;-85
2021/11/06 00:36:42;;;;;;;;;;;5.90;99.90;;;;;;5010814;28;19920;-85
2021/11/06 00:39:08;;;;;;;;;;;5.90;99.90;;;;;;5010549;28;20008;-84
2021/11/06 00:41:33;;;;;;;;;;;5.90;99.90;;;;;;5009546;28;20297;-84
2021/11/06 00:43:59;;;;;;;;;;;5.80;99.90;;;;;;5010680;28;20140;-85
2021/11/06 00:46:24;;;;;;;;;;;5.80;99.90;;;;;;5009322;28;19963;-85
2021/11/06 00:48:50;;;;;;;;;;;5.80;99.90;;;;;;5010606;28;19910;-84
2021/11/06 00:51:16;;;;;;;;;;;5.80;99.90;;;;;;5010583;28;19909;-84
2021/11/06 00:53:41;;;;;;;;;;;5.80;99.90;;;;;;5010316;28;20262;-84
2021/11/06 00:56:07;;;;;;;;;;;5.80;99.90;;;;;;5010442;28;19913;-84
2021/11/06 00:58:33;;;;;;;;;;;5.80;99.90;;;;;;5013527;28;19909;-84
2021/11/06 01:00:58;;;;;;;;;;;5.70;99.90;;;;;;5014452;28;19917;-84
2021/11/06 01:03:24;;;;;;;;;;;5.80;99.90;;;;;;5014376;28;19909;-84
2021/11/06 01:05:49;;;;;;;;;;;5.70;99.90;;;;;;5012621;28;20305;-85
2021/11/06 01:08:15;;;;;;;;;;;5.70;99.90;;;;;;5014163;28;20353;-84
2021/11/06 01:10:41;;;;;;;;;;;5.80;99.90;;;;;;5012555;28;20400;-85
2021/11/06 01:13:06;;;;;;;;;;;5.70;99.90;;;;;;5014068;28;19953;-84
2021/11/06 01:15:32;;;;;;;;;;;5.70;99.90;;;;;;5013730;28;19913;-85
2021/11/06 01:17:58;;;;;;;;;;;5.70;99.90;;;;;;5013966;28;19913;-85
2021/11/06 01:20:23;;;;;;;;;;;5.70;99.90;;;;;;5014084;28;19910;-84
2021/11/06 01:22:49;;;;;;;;;;;5.70;99.90;;;;;;5014275;28;20281;-85
2021/11/06 01:25:15;;;;;;;;;;;5.70;99.90;;;;;;5013991;28;20294;-85
2021/11/06 01:27:41;;;;;;;;;;;5.60;99.90;;;;;;5014090;28;19975;-85
2021/11/06 01:30:07;;;;;;;;;;;5.60;99.90;;;;;;5013573;28;19913;-85
2021/11/06 01:32:33;;;;;;;;;;;5.60;99.90;;;;;;5012721;28;19909;-85
2021/11/06 01:35:00;;;;;;;;;;;5.60;99.90;;;;;;5012448;28;20396;-85
2021/11/06 01:37:27;;;;;;;;;;;5.60;99.90;;;;;;5014315;28;19910;-85
2021/11/06 01:39:52;;;;;;;;;;;5.60;99.90;;;;;;5013866;28;19909;-85
2021/11/06 01:42:18;;;;;;;;;;;5.60;99.90;;;;;;5013758;28;20300;-85
2021/11/06 01:44:43;;;;;;;;;;;5.50;99.90;;;;;;5013679;28;19913;-85
2021/11/06 01:47:10;;;;;;;;;;;5.50;99.90;;;;;;5012499;28;20365;-85
2021/11/06 01:49:38;;;;;;;;;;;5.40;99.90;;;;;;5013543;28;20409;-85
2021/11/06 01:52:04;;;;;;;;;;;5.40;99.90;;;;;;5011965;28;19910;-84
2021/11/06 01:54:30;;;;;;;;;;;5.40;99.90;;;;;;5013340;28;19909;-85
2021/11/06 01:56:55;;;;;;;;;;;5.40;99.90;;;;;;5013556;28;20057;-85
2021/11/06 01:59:22;;;;;;;;;;;5.40;99.90;;;;;;5013330;28;20000;-84
2021/11/06 02:01:47;;;;;;;;;;;5.40;99.90;;;;;;5011963;28;20348;-84
2021/11/06 02:04:13;;;;;;;;;;;5.40;99.90;;;;;;5012982;28;19948;-85
2021/11/06 02:06:39;;;;;;;;;;;5.40;99.90;;;;;;5013277;28;19917;-85
2021/11/06 02:09:04;;;;;;;;;;;5.30;99.90;;;;;;5012887;28;19913;-84
2021/11/06 02:11:30;;;;;;;;;;;5.30;99.90;;;;;;5013120;28;19949;-85
2021/11/06 02:13:56;;;;;;;;;;;5.30;99.90;;;;;;5012862;28;19916;-85
2021/11/06 02:16:21;;;;;;;;;;;5.30;99.90;;;;;;5011579;28;20345;-85
2021/11/06 02:18:48;;;;;;;;;;;5.20;99.90;;;;;;5011922;28;19910;-84
2021/11/06 02:21:14;;;;;;;;;;;5.20;99.90;;;;;;5012671;28;19955;-85
2021/11/06 02:23:41;;;;;;;;;;;5.10;99.90;;;;;;5012768;28;20289;-85
2021/11/06 02:26:08;;;;;;;;;;;5.10;99.90;;;;;;5011395;28;19921;-85
2021/11/06 02:28:34;;;;;;;;;;;5.00;99.90;;;;;;5012517;28;19909;-85
2021/11/06 02:31:00;;;;;;;;;;;5.10;99.90;;;;;;5012905;28;19916;-85
2021/11/06 02:33:25;;;;;;;;;;;5.00;99.90;;;;;;5012528;28;19984;-84
2021/11/06 02:35:51;;;;;;;;;;;5.00;99.90;;;;;;5012630;28;19937;-85
2021/11/06 02:38:17;;;;;;;;;;;4.90;99.90;;;;;;5012338;28;19913;-85
2021/11/06 02:40:42;;;;;;;;;;;4.90;99.90;;;;;;5012495;28;20383;-85
2021/11/06 02:43:09;;;;;;;;;;;4.90;99.90;;;;;;5012356;28;19920;-85
2021/11/06 02:45:36;;;;;;;;;;;5.00;99.90;;;;;;5010722;28;19940;-85
2021/11/06 02:48:01;;;;;;;;;;;5.00;99.90;;;;;;5012500;28;20274;-85
2021/11/06 02:50:27;;;;;;;;;;;5.00;99.90;;;;;;5012397;28;19997;-85
2021/11/06 02:52:52;;;;;;;;;;;5.00;99.90;;;;;;5012350;28;19972;-85
2021/11/06 02:55:18;;;;;;;;;;;5.00;99.90;;;;;;5012134;28;19909;-85
2021/11/06 02:57:44;;;;;;;;;;;5.00;99.90;;;;;;5012242;28;20333;-85
2021/11/06 03:00:10;;;;;;;;;;;4.90;99.90;;;;;;5011846;28;19910;-85
2021/11/06 03:02:35;;;;;;;;;;;4.90;99.90;;;;;;5012172;28;19909;-85
2021/11/06 03:05:05;;;;;;;;;;;4.90;99.90;;;;;;5012040;28;19922;-85
2021/11/06 03:07:31;;;;;;;;;;;4.90;99.90;;;;;;5011975;28;19959;-85
2021/11/06 03:09:56;;;;;;;;;;;4.90;99.90;;;;;;5012236;28;19917;-85
2021/11/06 03:12:22;;;;;;;;;;;4.90;99.90;;;;;;5012171;28;19945;-85
2021/11/06 03:14:47;;;;;;;;;;;5.00;99.90;;;;;;5010887;28;19916;-85
2021/11/06 03:17:13;;;;;;;;;;;4.90;99.90;;;;;;5012041;28;20476;-85
2021/11/06 03:19:39;;;;;;;;;;;4.90;99.90;;;;;;5011116;28;20313;-85
2021/11/06 03:22:05;;;;;;;;;;;4.90;99.90;;;;;;5011938;28;19917;-85
2021/11/06 03:24:31;;;;;;;;;;;5.00;99.90;;;;;;5011786;28;19932;-85
2021/11/06 03:26:56;;;;;;;;;;;4.90;99.90;;;;;;5010489;28;20373;-85
2021/11/06 03:29:22;;;;;;;;;;;4.90;99.90;;;;;;5010541;28;19910;-85
2021/11/06 03:31:47;;;;;;;;;;;4.90;99.90;;;;;;5011341;28;19980;-85
2021/11/06 03:34:13;;;;;;;;;;;4.90;99.90;;;;;;5012207;28;19932;-85
2021/11/06 03:36:38;;;;;;;;;;;4.90;99.90;;;;;;5011528;28;19945;-85
2021/11/06 03:39:04;;;;;;;;;;;4.90;99.90;;;;;;5011233;28;19964;-85
2021/11/06 03:41:30;;;;;;;;;;;4.90;99.90;;;;;;5011224;28;19922;-85
2021/11/06 03:43:56;;;;;;;;;;;4.90;99.90;;;;;;5011328;28;19909;-85
2021/11/06 03:46:30;;;;;;;;;;;4.90;99.90;;;;;;5009598;28;19922;-85
2021/11/06 03:48:56;;;;;;;;;;;4.90;99.90;;;;;;5011278;28;20366;-85
2021/11/06 03:51:21;;;;;;;;;;;4.90;99.90;;;;;;5011163;28;19931;-85
2021/11/06 03:53:47;;;;;;;;;;;4.90;99.90;;;;;;5010922;28;20389;-85
2021/11/06 03:56:12;;;;;;;;;;;4.90;99.90;;;;;;5011823;28;20329;-85
2021/11/06 03:58:38;;;;;;;;;;;4.90;99.90;;;;;;5012174;28;19916;-85
2021/11/06 04:01:04;;;;;;;;;;;4.90;99.90;;;;;;5011974;28;19963;-85
2021/11/06 04:03:29;;;;;;;;;;;4.90;99.90;;;;;;5011650;28;19918;-85
2021/11/06 04:05:55;;;;;;;;;;;4.90;99.90;;;;;;5011737;28;19944;-85
2021/11/06 04:08:21;;;;;;;;;;;4.90;99.90;;;;;;5011239;28;19910;-85
2021/11/06 04:10:46;;;;;;;;;;;4.80;99.90;;;;;;5009617;28;19909;-85
2021/11/06 04:13:13;;;;;;;;;;;4.80;99.90;;;;;;5010712;28;19909;-85
2021/11/06 04:15:39;;;;;;;;;;;4.80;99.90;;;;;;5010817;28;19932;-84
2021/11/06 04:18:05;;;;;;;;;;;4.80;99.90;;;;;;5010733;28;20194;-85
2021/11/06 04:20:31;;;;;;;;;;;4.70;99.90;;;;;;5011285;28;20204;-87
2021/11/06 04:22:56;;;;;;;;;;;4.60;99.90;;;;;;5010740;28;19975;-85
2021/11/06 04:25:22;;;;;;;;;;;4.60;99.90;;;;;;5009799;28;19925;-85
2021/11/06 04:27:48;;;;;;;;;;;4.60;99.90;;;;;;5011589;28;19909;-85
2021/11/06 04:30:13;;;;;;;;;;;4.60;99.90;;;;;;5010411;28;19916;-85
2021/11/06 04:32:39;;;;;;;;;;;4.60;99.90;;;;;;5009485;28;19913;-85
2021/11/06 04:35:05;;;;;;;;;;;4.60;99.90;;;;;;5010703;28;19910;-85
2021/11/06 04:37:30;;;;;;;;;;;4.60;99.90;;;;;;5009808;28;19909;-84
2021/11/06 04:39:56;;;;;;;;;;;4.70;99.90;;;;;;5009086;28;19945;-85
2021/11/06 04:42:21;;;;;;;;;;;4.70;99.90;;;;;;5010583;28;19921;-85
2021/11/06 04:44:47;;;;;;;;;;;4.70;99.90;;;;;;5010366;28;20345;-85
2021/11/06 04:47:12;;;;;;;;;;;4.70;99.90;;;;;;5008919;28;19921;-85
2021/11/06 04:49:38;;;;;;;;;;;4.70;99.90;;;;;;5010393;28;19916;-85
2021/11/06 04:52:04;;;;;;;;;;;4.60;99.90;;;;;;5010288;28;20362;-85
2021/11/06 04:54:29;;;;;;;;;;;4.70;99.90;;;;;;5009520;28;19909;-85
2021/11/06 04:56:55;;;;;;;;;;;4.70;99.90;;;;;;5010781;28;19980;-85
2021/11/06 04:59:20;;;;;;;;;;;4.60;99.90;;;;;;5010802;28;19932;-85
2021/11/06 05:01:46;;;;;;;;;;;4.60;99.90;;;;;;5010372;28;19972;-85
2021/11/06 05:04:12;;;;;;;;;;;4.60;99.90;;;;;;5010274;28;19910;-85
2021/11/06 05:06:37;;;;;;;;;;;4.50;99.90;;;;;;5010329;28;20016;-85
2021/11/06 05:09:03;;;;;;;;;;;4.50;99.90;;;;;;5010488;28;19909;-85
2021/11/06 05:11:28;;;;;;;;;;;4.40;99.90;;;;;;5010277;28;19996;-85
2021/11/06 05:13:54;;;;;;;;;;;4.30;99.90;;;;;;4992620;28;20021;-85
2021/11/06 05:16:19;;;;;;;;;;;4.30;99.90;;;;;;5008794;28;19948;-85
2021/11/06 05:18:45;;;;;;;;;;;4.30;99.90;;;;;;5008921;28;19917;-84
2021/11/06 05:21:11;;;;;;;;;;;4.30;99.90;;;;;;5010000;28;19916;-85
2021/11/06 05:23:37;;;;;;;;;;;4.30;99.90;;;;;;5010395;28;19992;-85
2021/11/06 05:26:02;;;;;;;;;;;4.20;99.90;;;;;;5010183;28;19918;-85
2021/11/06 05:28:28;;;;;;;;;;;4.20;99.90;;;;;;5010569;28;19975;-85
2021/11/06 05:30:54;;;;;;;;;;;4.20;99.90;;;;;;4992878;28;20334;-85
2021/11/06 05:33:19;;;;;;;;;;;4.10;99.90;;;;;;5010432;28;19910;-85
2021/11/06 05:35:46;;;;;;;;;;;4.10;99.90;;;;;;5010324;28;20545;-85
2021/11/06 05:38:11;;;;;;;;;;;4.10;99.90;;;;;;5010118;28;20281;-85
2021/11/06 05:40:37;;;;;;;;;;;4.10;99.90;;;;;;5009815;28;19922;-85
2021/11/06 05:43:03;;;;;;;;;;;4.10;99.90;;;;;;5010736;28;19916;-85
2021/11/06 05:45:29;;;;;;;;;;;4.10;99.90;;;;;;5011912;28;20293;-85
2021/11/06 05:47:54;;;;;;;;;;;4.10;99.90;;;;;;5013449;28;19910;-85
2021/11/06 05:50:20;;;;;;;;;;;4.10;99.90;;;;;;5013401;28;20333;-85
2021/11/06 05:52:45;;;;;;;;;;;4.00;99.90;;;;;;5013414;28;20343;-85
2021/11/06 05:55:15;;;;;;;;;;;4.00;99.90;;;;;;5013604;28;20348;-85
2021/11/06 05:57:40;;;;;;;;;;;4.00;99.90;;;;;;5013491;28;20130;-85
2021/11/06 06:00:08;;;;;;;;;;;4.00;99.90;;;;;;5013323;28;20200;-85
2021/11/06 06:02:34;;;;;;;;;;;4.00;99.90;;;;;;5011938;28;19910;-85
2021/11/06 06:05:00;;;;;;;;;;;4.10;99.90;;;;;;5011859;28;19921;-85
2021/11/06 06:07:25;;;;;;;;;;;4.10;99.90;;;;;;5013501;28;19910;-85
2021/11/06 06:09:51;;;;;;;;;;;4.00;99.90;;;;;;5013146;28;20015;-84
2021/11/06 06:12:16;;;;;;;;;;;4.00;99.90;;;;;;5013111;28;19910;-85
2021/11/06 06:14:42;;;;;;;;;;;3.90;99.90;;;;;;5012953;28;19929;-85
2021/11/06 06:17:08;;;;;;;;;;;3.90;99.90;;;;;;5012941;28;19914;-85
2021/11/06 06:19:33;;;;;;;;;;;3.90;99.90;;;;;;5013007;28;20243;-85
2021/11/06 06:21:59;;;;;;;;;;;3.90;99.90;;;;;;5012929;28;19909;-85
2021/11/06 06:24:24;;;;;;;;;;;3.90;99.90;;;;;;5011466;28;19910;-85
2021/11/06 06:26:50;;;;;;;;;;;3.80;99.90;;;;;;5012959;28;19925;-84
2021/11/06 06:29:16;;;;;;;;;;;3.80;99.90;;;;;;5011936;28;20361;-84
2021/11/06 06:31:41;;;;;;;;;;;3.80;99.90;;;;;;5012852;28;20004;-85
2021/11/06 06:34:07;;;;;;;;;;;3.80;99.90;;;;;;5012933;28;20161;-85
2021/11/06 06:36:32;;;;;;;;;;;3.80;99.90;;;;;;5011237;28;19915;-85
2021/11/06 06:38:58;;;;;;;;;;;3.80;99.90;;;;;;5012897;28;20004;-85
2021/11/06 06:41:23;;;;;;;;;;;3.80;99.90;;;;;;5012078;28;19957;-84
2021/11/06 06:43:49;;;;;;;;;;;3.80;99.90;;;;;;5011222;28;19949;-85
2021/11/06 06:46:15;;;;;;;;;;;3.80;99.90;;;;;;5012291;28;19917;-84
2021/11/06 06:48:40;;;;;;;;;;;3.80;99.90;;;;;;5010868;28;19909;-85
2021/11/06 06:51:06;;;;;;;;;;;3.80;99.90;;;;;;5012565;28;19963;-85
2021/11/06 06:53:31;;;;;;;;;;;3.80;99.90;;;;;;5012196;28;19996;-85
2021/11/06 06:55:57;;;;;;;;;;;3.70;99.90;;;;;;5011175;28;19913;-85
2021/11/06 06:58:22;;;;;;;;;;;3.80;99.90;;;;;;5010673;28;20000;-85
2021/11/06 07:00:48;;;;;;;;;;;3.80;99.90;;;;;;5010769;28;20369;-85
2021/11/06 07:03:13;;;;;;;;;;;3.80;99.90;;;;;;5012137;28;19916;-84
2021/11/06 07:05:39;;;;;;;;;;;3.80;99.90;;;;;;5011920;28;20067;-85
2021/11/06 07:08:06;;;;;;;;;;;3.80;99.90;;;;;;5012043;28;20285;-85
2021/11/06 07:10:32;;;;;;;;;;;3.80;99.90;;;;;;5012115;28;19909;-85
2021/11/06 07:12:58;;;;;;;;;;;3.90;99.90;;;;;;5011881;28;19913;-85
2021/11/06 07:15:23;;;;;;;;;;;3.90;99.90;;;;;;5011715;28;19909;-85
2021/11/06 07:17:49;;;;;;;;;;;4.00;99.90;;;;;;5010195;28;19910;-85
2021/11/06 07:20:16;;;;;;;;;;;4.00;99.90;;;;;;5011907;28;19910;-84
2021/11/06 07:22:41;;;;;;;;;;;4.10;99.90;;;;;;5010443;28;20341;-85
2021/11/06 07:25:07;;;;;;;;;;;4.10;99.90;;;;;;5011692;28;19964;-84
2021/11/06 07:27:34;;;;;;;;;;;4.20;99.90;;;;;;5011617;28;19946;-84
2021/11/06 07:30:00;;;;;;;;;;;4.20;99.90;;;;;;5011447;28;20373;-85
2021/11/06 07:32:26;;;;;;;;;;;4.20;99.90;;;;;;5011526;28;19992;-84
2021/11/06 07:34:51;;;;;;;;;;;4.30;99.90;;;;;;5010005;28;20000;-85
2021/11/06 07:37:17;;;;;;;;;;;4.40;99.90;;;;;;5011505;28;19910;-85
2021/11/06 07:39:42;;;;;;;;;;;4.40;99.90;;;;;;5011657;28;20017;-84
2021/11/06 07:42:08;;;;;;;;;;;4.50;99.90;;;;;;5011955;28;19921;-85
2021/11/06 07:44:33;;;;;;;;;;;4.60;99.90;;;;;;5011479;28;19933;-84
2021/11/06 07:46:59;;;;;;;;;;;4.70;99.90;;;;;;5010135;28;19925;-85
2021/11/06 07:49:25;;;;;;;;;;;4.80;99.90;;;;;;5011522;28;19909;-85
2021/11/06 07:51:51;;;;;;;;;;;4.90;99.90;;;;;;5011202;28;19909;-85
2021/11/06 07:54:17;;;;;;;;;;;5.00;99.90;;;;;;5011733;28;20075;-85
2021/11/06 07:56:42;;;;;;;;;;;5.10;99.90;;;;;;5011208;28;20349;-89
2021/11/06 07:59:08;;;;;;;;;;;5.20;99.90;;;;;;5010984;28;19917;-89
2021/11/06 08:01:33;;;;;;;;;;;5.20;99.90;;;;;;5010036;28;19916;-91
2021/11/06 08:03:59;;;;;;;;;;;5.30;99.90;;;;;;5009673;28;19980;-89
2021/11/06 08:06:25;;;;;;;;;;;5.40;99.90;;;;;;5012914;28;19917;-88
2021/11/06 08:08:51;;;;;;;;;;;5.50;99.90;;;;;;5013291;28;19924;-89
2021/11/06 08:11:16;;;;;;;;;;;5.60;99.90;;;;;;5016722;28;20196;-89
2021/11/06 08:13:42;;;;;;;;;;;5.60;99.90;;;;;;5024454;28;19909;-90
2021/11/06 08:16:08;;;;;;;;;;;5.70;99.90;;;;;;5017464;28;19962;-89
2021/11/06 08:18:33;;;;;;;;;;;5.80;99.90;;;;;;5023166;28;20021;-89
2021/11/06 08:20:59;;;;;;;;;;;5.80;99.90;;;;;;5018034;28;20101;-89
2021/11/06 08:23:24;;;;;;;;;;;6.00;99.90;;;;;;5013526;28;19917;-90
2021/11/06 08:25:50;;;;;;;;;;;6.10;99.90;;;;;;5011624;28;19979;-89
2021/11/06 08:28:16;;;;;;;;;;;6.20;99.90;;;;;;5016364;28;20270;-89
2021/11/06 08:30:42;;;;;;;;;;;6.30;99.90;;;;;;5018642;28;20024;-89
2021/11/06 08:33:08;;;;;;;;;;;6.30;99.90;;;;;;4997159;28;19909;-88
2021/11/06 08:35:34;;;;;;;;;;;6.20;99.90;;;;;;4999573;28;20530;-89
2021/11/06 08:38:00;;;;;;;;;;;6.20;99.90;;;;;;5017824;28;19916;-89
2021/11/06 08:40:26;;;;;;;;;;;6.20;99.90;;;;;;5010586;28;19913;-89
2021/11/06 08:42:53;;;;;;;;;;;6.20;99.90;;;;;;5018463;28;20728;-89
2021/11/06 08:45:19;;;;;;;;;;;6.40;99.90;;;;;;5009147;28;19917;-90
2021/11/06 08:47:45;;;;;;;;;;;6.50;99.90;;;;;;5009033;28;19910;-90
2021/11/06 08:50:13;;;;;;;;;;;6.60;99.90;;;;;;5014658;28;19916;-90
2021/11/06 08:52:39;;;;;;;;;;;6.80;99.90;;;;;;5013242;28;19909;-89
2021/11/06 08:55:06;;;;;;;;;;;6.90;99.90;;;;;;5015764;28;19910;-88
2021/11/06 08:57:33;;;;;;;;;;;7.00;99.90;;;;;;5016117;28;19960;-89
2021/11/06 09:00:05;;;;;;;;;;;7.10;99.90;;;;;;5010839;28;19914;-90
2021/11/06 09:02:31;;;;;;;;;;;7.20;99.90;;;;;;5017174;28;19909;-89
2021/11/06 09:04:56;;;;;;;;;;;7.40;99.90;;;;;;5019116;28;19962;-91
2021/11/06 09:07:22;;;;;;;;;;;7.50;99.90;;;;;;5014429;28;19975;-90
2021/11/06 09:09:48;;;;;;;;;;;7.60;99.90;;;;;;5015767;28;20000;-89
2021/11/06 09:12:13;;;;;;;;;;;7.60;99.90;;;;;;5009131;28;19909;-90
2021/11/06 09:14:39;;;;;;;;;;;7.70;99.90;;;;;;5009153;28;20312;-90
2021/11/06 09:17:05;;;;;;;;;;;7.80;99.90;;;;;;5010497;28;19910;-90
2021/11/06 09:19:30;;;;;;;;;;;7.90;99.90;;;;;;5013318;28;19933;-90
2021/11/06 09:21:56;;;;;;;;;;;8.00;99.90;;;;;;5012775;28;19937;-90
2021/11/06 09:24:21;;;;;;;;;;;8.10;99.90;;;;;;5012495;28;19910;-90
2021/11/06 09:26:47;;;;;;;;;;;8.20;99.90;;;;;;5014004;28;20023;-91
2021/11/06 09:29:14;;;;;;;;;;;8.30;99.90;;;;;;5012899;28;20374;-90
2021/11/06 09:31:41;;;;;;;;;;;8.40;99.90;;;;;;5014311;28;19936;-89
2021/11/06 09:34:07;;;;;;;;;;;8.60;99.90;;;;;;5013936;28;20134;-90
2021/11/06 09:36:33;;;;;;;;;;;8.60;99.90;;;;;;5012892;28;19910;-91
2021/11/06 09:39:02;;;;;;;;;;;8.80;99.90;;;;;;5013812;28;20373;-91
2021/11/06 09:41:27;;;;;;;;;;;8.90;99.90;;;;;;5012062;28;19925;-91
2021/11/06 09:43:53;;;;;;;;;;;9.00;99.90;;;;;;5012447;28;19918;-90
2021/11/06 09:46:18;;;;;;;;;;;9.10;99.90;;;;;;5013521;28;19917;-90
2021/11/06 09:48:45;;;;;;;;;;;9.20;99.90;;;;;;5013759;28;19921;-90
2021/11/06 09:51:11;;;;;;;;;;;9.20;99.90;;;;;;5013691;28;19913;-90
2021/11/06 09:53:40;;;;;;;;;;;9.30;99.90;;;;;;5012415;28;19921;-90
2021/11/06 09:56:06;;;;;;;;;;;9.40;99.90;;;;;;5013960;28;20503;-90
2021/11/06 09:58:32;;;;;;;;;;;9.40;99.90;;;;;;5014127;28;19910;-91
2021/11/06 10:00:59;;;;;;;;;;;9.60;99.90;;;;;;5014128;28;19913;-90
2021/11/06 10:03:25;;;;;;;;;;;9.70;99.90;;;;;;5016549;28;19940;-90
2021/11/06 10:05:55;;;;;;;;;;;9.70;99.90;;;;;;5021532;28;20016;-90
2021/11/06 10:08:29;;;;;;;;;;;9.80;99.90;;;;;;5022421;28;19906;-90
2021/11/06 10:10:56;;;;;;;;;;;9.90;99.90;;;;;;5020488;28;19961;-91
2021/11/06 10:13:22;;;;;;;;;;;9.90;99.90;;;;;;5014934;28;19920;-89
2021/11/06 10:15:51;;;;;;;;;;;9.90;99.90;;;;;;5017127;28;19921;-89
2021/11/06 10:18:19;;;;;;;;;;;9.90;99.90;;;;;;5020015;28;19909;-91
2021/11/06 10:20:46;;;;;;;;;;;10.00;99.90;;;;;;5025090;28;19909;-88
2021/11/06 10:23:12;;;;;;;;;;;10.10;99.90;;;;;;5031382;28;19917;-89
2021/11/06 10:25:38;;;;;;;;;;;10.10;99.90;;;;;;5027929;28;19913;-89
2021/11/06 10:28:05;;;;;;;;;;;10.10;99.90;;;;;;5029776;28;20333;-88
2021/11/06 10:30:36;;;;;;;;;;;10.30;99.90;;;;;;5031345;28;19913;-88
2021/11/06 10:33:01;;;;;;;;;;;10.30;99.90;;;;;;5025756;28;19910;-88
2021/11/06 10:35:29;;;;;;;;;;;10.40;99.90;;;;;;5030471;28;20300;-88
2021/11/06 10:38:02;;;;;;;;;;;10.50;99.90;;;;;;5026035;28;19909;-88
2021/11/06 10:40:32;;;;;;;;;;;10.50;99.90;;;;;;5029408;28;20405;-88
2021/11/06 10:42:59;;;;;;;;;;;10.50;99.90;;;;;;5025829;28;19925;-87
2021/11/06 10:45:26;;;;;;;;;;;10.60;99.90;;;;;;5028861;28;19917;-88
2021/11/06 10:48:05;;;;;;;;;;;10.70;99.90;;;;;;5027066;28;19999;-88
2021/11/06 10:50:40;;;;;;;;;;;10.70;99.90;;;;;;5028989;28;20410;-87
2021/11/06 10:53:06;;;;;;;;;;;10.80;99.90;;;;;;5025859;28;19917;-88
2021/11/06 10:55:36;;;;;;;;;;;10.80;99.90;;;;;;5013366;28;20281;-88
2021/11/06 10:58:03;;;;;;;;;;;10.90;99.90;;;;;;5027914;28;20006;-88
2021/11/06 11:00:29;;;;;;;;;;;10.90;99.90;;;;;;5009712;28;19909;-88
2021/11/06 11:02:54;;;;;;;;;;;10.90;99.90;;;;;;5014583;28;20293;-88
2021/11/06 11:05:34;;;;;;;;;;;11.10;99.90;;;;;;5012429;28;20161;-87
2021/11/06 11:08:06;;;;;;;;;;;11.10;99.90;;;;;;5012637;28;19925;-88
2021/11/06 11:10:32;;;;;;;;;;;11.20;99.90;;;;;;5012516;28;20141;-88
2021/11/06 11:13:13;;;;;;;;;;;11.30;99.90;;;;;;5015650;28;20208;-88
2021/11/06 11:15:40;;;;;;;;;;;11.30;99.90;;;;;;5012025;28;20274;-88
2021/11/06 11:18:05;;;;;;;;;;;11.40;99.90;;;;;;5012674;28;19909;-88
2021/11/06 11:20:32;;;;;;;;;;;11.50;99.90;;;;;;5012231;28;20452;-88
2021/11/06 11:23:11;;;;;;;;;;;11.50;99.90;;;;;;5011386;28;19920;-88
2021/11/06 11:25:38;;;;;;;;;;;11.60;99.90;;;;;;5010710;28;20007;-88
2021/11/06 11:28:04;;;;;;;;;;;11.60;99.90;;;;;;5024917;28;19929;-87
2021/11/06 11:30:30;;;;;;;;;;;11.60;99.90;;;;;;5010090;28;20389;-88
2021/11/06 11:32:55;;;;;;;;;;;11.60;99.90;;;;;;5027291;28;19916;-87
2021/11/06 11:35:21;;;;;;;;;;;11.60;99.90;;;;;;4992965;28;19996;-88
2021/11/06 11:37:47;;;;;;;;;;;11.70;99.90;;;;;;5011550;28;20348;-88
2021/11/06 11:40:13;;;;;;;;;;;11.80;99.90;;;;;;5013518;28;20424;-88
2021/11/06 11:42:41;;;;;;;;;;;11.70;99.90;;;;;;5012223;28;19916;-88
2021/11/06 11:45:10;;;;;;;;;;;11.80;99.90;;;;;;5011078;28;20000;-88
2021/11/06 11:47:43;;;;;;;;;;;11.90;99.90;;;;;;5010817;28;19913;-88
2021/11/06 11:50:17;;;;;;;;;;;11.90;99.90;;;;;;5011349;28;20133;-88
2021/11/06 11:52:51;;;;;;;;;;;11.90;99.90;;;;;;5011270;28;20418;-88
2021/11/06 11:55:19;;;;;;;;;;;12.00;99.90;;;;;;5010469;28;19916;-88
2021/11/06 11:57:51;;;;;;;;;;;12.00;99.90;;;;;;5010126;28;19972;-88
2021/11/06 12:00:17;;;;;;;;;;;12.00;99.90;;;;;;4998454;28;19917;-88
2021/11/06 12:02:53;;;;;;;;;;;12.10;99.90;;;;;;5026384;28;20281;-88
2021/11/06 12:05:21;;;;;;;;;;;12.10;99.90;;;;;;5025700;28;19913;-89
2021/11/06 12:07:47;;;;;;;;;;;12.10;99.90;;;;;;5011028;28;20441;-89
2021/11/06 12:10:25;;;;;;;;;;;12.10;99.90;;;;;;5011123;28;20293;-88
2021/11/06 12:12:51;;;;;;;;;;;12.20;99.90;;;;;;5010643;28;19913;-88
2021/11/06 12:15:16;;;;;;;;;;;12.10;99.90;;;;;;5010899;28;20416;-88
2021/11/06 12:17:42;;;;;;;;;;;12.10;99.90;;;;;;5010935;28;19916;-88
2021/11/06 12:20:24;;;;;;;;;;;12.20;99.90;;;;;;5010648;28;19918;-88
2021/11/06 12:22:49;;;;;;;;;;;12.30;99.90;;;;;;5010868;28;19960;-88
2021/11/06 12:25:15;;;;;;;;;;;12.30;99.90;;;;;;5010935;28;19949;-88
2021/11/06 12:27:50;;;;;;;;;;;12.30;99.90;;;;;;5010711;28;19910;-87
2021/11/06 12:30:30;;;;;;;;;;;12.20;99.90;;;;;;5010656;28;19910;-88
2021/11/06 12:32:56;;;;;;;;;;;12.30;99.90;;;;;;5010938;28;19909;-88
2021/11/06 12:35:24;;;;;;;;;;;12.30;99.90;;;;;;5011052;28;19996;-88
2021/11/06 12:37:52;;;;;;;;;;;12.30;99.90;;;;;;5010557;28;19981;-88
2021/11/06 12:40:28;;;;;;;;;;;12.30;99.90;;;;;;5010675;28;20290;-88
2021/11/06 12:43:07;;;;;;;;;;;12.30;99.90;;;;;;5010628;28;19909;-87
2021/11/06 12:45:33;;;;;;;;;;;12.30;99.90;;;;;;5010429;28;20385;-87
2021/11/06 12:48:08;;;;;;;;;;;12.20;99.90;;;;;;5010946;28;19957;-88
2021/11/06 12:50:34;;;;;;;;;;;12.20;99.90;;;;;;5010529;28;20332;-87
2021/11/06 12:53:01;;;;;;;;;;;12.30;99.90;;;;;;5011516;28;19909;-87
2021/11/06 12:55:27;;;;;;;;;;;12.30;99.90;;;;;;5013219;28;19910;-87
2021/11/06 12:57:55;;;;;;;;;;;12.30;99.90;;;;;;5014533;28;20404;-87
2021/11/06 13:00:46;;;;;;;;;;;12.40;99.90;;;;;;5014343;28;19910;-88
2021/11/06 13:03:12;;;;;;;;;;;12.40;99.90;;;;;;4993408;28;19929;-88
2021/11/06 13:05:43;;;;;;;;;;;12.50;99.90;;;;;;5013100;28;20016;-87
2021/11/06 13:08:12;;;;;;;;;;;12.60;99.90;;;;;;5014314;28;19957;-87
2021/11/06 13:10:39;;;;;;;;;;;12.60;99.90;;;;;;5015078;28;19913;-86
2021/11/06 13:13:09;;;;;;;;;;;12.60;99.90;;;;;;5016361;28;20008;-86
2021/11/06 13:15:37;;;;;;;;;;;12.50;99.90;;;;;;5015903;28;19914;-86
2021/11/06 13:18:22;;;;;;;;;;;12.60;99.90;;;;;;4996395;28;20294;-86
2021/11/06 13:20:50;;;;;;;;;;;12.60;99.90;;;;;;5010347;28;20017;-86
2021/11/06 13:23:16;;;;;;;;;;;12.50;99.90;;;;;;5016447;28;19909;-86
2021/11/06 13:25:45;;;;;;;;;;;12.60;99.90;;;;;;5015698;28;20015;-86
2021/11/06 13:28:25;;;;;;;;;;;12.50;99.90;;;;;;5017486;28;19949;-86
2021/11/06 13:30:54;;;;;;;;;;;12.50;99.90;;;;;;5015753;28;19909;-86
2021/11/06 13:33:21;;;;;;;;;;;12.50;99.90;;;;;;5017377;28;19916;-86
2021/11/06 13:35:47;;;;;;;;;;;12.60;99.90;;;;;;4994934;28;20297;-86
2021/11/06 13:38:18;;;;;;;;;;;12.70;99.90;;;;;;5015511;28;19916;-86
2021/11/06 13:40:45;;;;;;;;;;;12.70;99.90;;;;;;5015391;28;19921;-86
2021/11/06 13:43:12;;;;;;;;;;;12.60;99.90;;;;;;5017282;28;19935;-86
2021/11/06 13:45:37;;;;;;;;;;;12.60;99.90;;;;;;5015284;28;19925;-86
2021/11/06 13:48:03;;;;;;;;;;;12.70;99.90;;;;;;5015227;28;20029;-86
2021/11/06 13:50:28;;;;;;;;;;;12.90;99.90;;;;;;5013608;28;19949;-86
2021/11/06 13:52:54;;;;;;;;;;;13.00;99.90;;;;;;5013372;28;19910;-86
2021/11/06 13:55:20;;;;;;;;;;;13.00;99.90;;;;;;5013583;28;19910;-86
2021/11/06 13:57:49;;;;;;;;;;;13.10;99.90;;;;;;5013126;28;19916;-86
2021/11/06 14:00:17;;;;;;;;;;;13.00;99.90;;;;;;5013142;28;20339;-86
2021/11/06 14:02:45;;;;;;;;;;;13.00;99.90;;;;;;4995577;28;19909;-87
2021/11/06 14:05:11;;;;;;;;;;;12.90;99.90;;;;;;5010941;28;19909;-88
2021/11/06 14:07:49;;;;;;;;;;;13.00;99.90;;;;;;5013247;28;20313;-86
2021/11/06 14:10:31;;;;;;;;;;;13.00;99.90;;;;;;4993178;28;20274;-86
2021/11/06 14:12:57;;;;;;;;;;;13.00;99.90;;;;;;5013060;28;19910;-86
2021/11/06 14:15:26;;;;;;;;;;;12.90;99.90;;;;;;5012999;28;19956;-86
2021/11/06 14:18:01;;;;;;;;;;;12.90;99.90;;;;;;5012870;28;19913;-86
2021/11/06 14:20:47;;;;;;;;;;;12.90;99.90;;;;;;5012752;28;19910;-87
2021/11/06 14:23:14;;;;;;;;;;;12.70;99.90;;;;;;5012720;28;19913;-87